createdAt,value
2023-01-18T00:00:37.663Z,90.80
2023-01-18T00:01:37.617Z,90.80
2023-01-18T00:02:37.563Z,91.53
2023-01-18T00:03:37.516Z,91.50
2023-01-18T00:04:37.558Z,90.45
2023-01-18T00:05:37.500Z,89.92
2023-01-18T00:06:37.495Z,89.86
2023-01-18T00:07:37.486Z,89.54
2023-01-18T00:08:37.480Z,89.75
2023-01-18T00:09:37.470Z,89.75
2023-01-18T00:10:37.463Z,89.54
2023-01-18T00:11:37.457Z,89.65
2023-01-18T00:12:37.448Z,89.12
2023-01-18T00:13:37.445Z,89.27
2023-01-18T00:14:37.433Z,89.06
2023-01-18T00:15:37.423Z,88.54
2023-01-18T00:16:37.506Z,89.59
2023-01-18T00:17:37.405Z,90.22
2023-01-18T00:18:37.445Z,90.32
2023-01-18T00:19:37.388Z,90.84
2023-01-18T00:20:37.380Z,90.42
2023-01-18T00:21:37.372Z,90.42
2023-01-18T00:22:37.366Z,91.41
2023-01-18T00:23:37.888Z,92.32
2023-01-18T00:24:37.353Z,92.21
2023-01-18T00:25:37.337Z,93.57
2023-01-18T00:26:37.331Z,93.36
2023-01-18T00:27:37.322Z,94.06
2023-01-18T00:28:37.319Z,93.63
2023-01-18T00:29:37.307Z,94.41
2023-01-18T00:30:37.299Z,93.84
2023-01-18T00:31:37.356Z,93.15
2023-01-18T00:32:37.282Z,92.42
2023-01-18T00:33:37.274Z,92.63
2023-01-18T00:34:37.286Z,92.32
2023-01-18T00:35:37.259Z,92.10
2023-01-18T00:36:37.253Z,92.42
2023-01-18T00:37:37.243Z,91.47
2023-01-18T00:38:37.236Z,91.16
2023-01-18T00:39:37.227Z,91.16
2023-01-18T00:40:37.218Z,91.62
2023-01-18T00:41:37.213Z,92.10
2023-01-18T00:42:37.207Z,92.99
2023-01-18T00:43:37.194Z,92.52
2023-01-18T00:44:37.192Z,92.83
2023-01-18T00:45:37.225Z,93.68
2023-01-18T00:46:37.172Z,93.47
2023-01-18T00:47:37.163Z,93.84
2023-01-18T00:48:37.154Z,94.06
2023-01-18T00:49:37.146Z,94.06
2023-01-18T00:50:37.159Z,94.47
2023-01-18T00:51:37.128Z,93.32
2023-01-18T00:52:37.122Z,93.01
2023-01-18T00:53:37.113Z,91.12
2023-01-18T00:54:37.104Z,90.59
2023-01-18T00:55:37.100Z,90.59
2023-01-18T00:56:37.088Z,90.59
2023-01-18T00:57:37.084Z,91.22
2023-01-18T00:58:37.116Z,92.16
2023-01-18T00:59:37.063Z,92.16
2023-01-18T01:00:37.056Z,92.69
2023-01-18T01:01:37.143Z,92.38
2023-01-18T01:02:37.055Z,92.90
2023-01-18T01:03:37.036Z,92.90
2023-01-18T01:04:37.021Z,92.69
2023-01-18T01:05:37.042Z,93.11
2023-01-18T01:06:37.030Z,92.58
2023-01-18T01:07:37.006Z,92.16
2023-01-18T01:08:36.993Z,92.63
2023-01-18T01:09:36.980Z,91.43
2023-01-18T01:10:36.976Z,91.64
2023-01-18T01:11:36.967Z,92.16
2023-01-18T01:12:36.969Z,91.96
2023-01-18T01:13:36.958Z,92.48
2023-01-18T01:14:36.942Z,92.90
2023-01-18T01:15:36.931Z,93.01
2023-01-18T01:16:36.947Z,93.21
2023-01-18T01:17:36.922Z,93.17
2023-01-18T01:18:36.909Z,93.43
2023-01-18T01:19:36.899Z,93.49
2023-01-18T01:20:36.894Z,93.59
2023-01-18T01:21:36.884Z,93.38
2023-01-18T01:22:36.897Z,93.59
2023-01-18T01:23:36.870Z,93.34
2023-01-18T01:24:36.859Z,93.44
2023-01-18T01:25:36.853Z,93.02
2023-01-18T01:26:36.845Z,92.86
2023-01-18T01:27:36.834Z,92.96
2023-01-18T01:28:37.038Z,92.96
2023-01-18T01:29:36.817Z,92.86
2023-01-18T01:30:36.841Z,92.92
2023-01-18T01:31:36.801Z,93.34
2023-01-18T01:32:36.797Z,92.82
2023-01-18T01:33:36.787Z,92.92
2023-01-18T01:34:36.785Z,92.61
2023-01-18T01:35:36.773Z,91.66
2023-01-18T01:36:36.772Z,91.24
2023-01-18T01:37:36.759Z,90.72
2023-01-18T01:38:36.768Z,90.41
2023-01-18T01:39:36.738Z,90.51
2023-01-18T01:40:36.732Z,90.55
2023-01-18T01:41:36.718Z,90.93
2023-01-18T01:42:36.712Z,91.66
2023-01-18T01:43:36.703Z,92.40
2023-01-18T01:44:36.694Z,91.98
2023-01-18T01:45:36.718Z,92.61
2023-01-18T01:46:36.682Z,92.29
2023-01-18T01:47:36.674Z,93.02
2023-01-18T01:48:36.669Z,92.50
2023-01-18T01:49:36.656Z,91.46
2023-01-18T01:50:36.648Z,90.61
2023-01-18T01:51:36.635Z,90.41
2023-01-18T01:52:36.629Z,90.61
2023-01-18T01:53:36.622Z,91.14
2023-01-18T01:54:36.645Z,91.46
2023-01-18T01:55:36.606Z,91.98
2023-01-18T01:56:36.597Z,91.35
2023-01-18T01:57:36.588Z,90.61
2023-01-18T01:58:36.584Z,90.13
2023-01-18T01:59:36.572Z,89.61
2023-01-18T02:00:36.566Z,89.75
2023-01-18T02:01:36.730Z,89.12
2023-01-18T02:02:36.583Z,89.02
2023-01-18T02:03:36.540Z,89.12
2023-01-18T02:04:36.539Z,89.65
2023-01-18T02:05:36.529Z,89.27
2023-01-18T02:06:36.519Z,88.54
2023-01-18T02:07:36.515Z,88.01
2023-01-18T02:08:36.507Z,88.05
2023-01-18T02:09:36.497Z,87.52
2023-01-18T02:10:36.518Z,88.05
2023-01-18T02:11:36.484Z,88.37
2023-01-18T02:12:36.470Z,89.00
2023-01-18T02:13:36.457Z,89.94
2023-01-18T02:14:36.457Z,90.05
2023-01-18T02:15:36.442Z,90.15
2023-01-18T02:16:36.502Z,90.78
2023-01-18T02:17:36.431Z,91.30
2023-01-18T02:18:36.418Z,91.79
2023-01-18T02:19:36.409Z,92.21
2023-01-18T02:20:36.406Z,91.89
2023-01-18T02:21:36.391Z,92.83
2023-01-18T02:22:36.383Z,92.52
2023-01-18T02:23:36.379Z,92.32
2023-01-18T02:24:36.381Z,92.21
2023-01-18T02:25:36.367Z,92.73
2023-01-18T02:26:36.381Z,93.05
2023-01-18T02:27:36.342Z,92.83
2023-01-18T02:28:36.536Z,93.32
2023-01-18T02:29:36.325Z,93.95
2023-01-18T02:30:36.368Z,94.37
2023-01-18T02:31:36.314Z,93.74
2023-01-18T02:32:36.304Z,94.06
2023-01-18T02:33:36.291Z,93.84
2023-01-18T02:34:36.285Z,94.54
2023-01-18T02:35:36.277Z,94.64
2023-01-18T02:36:36.270Z,94.32
2023-01-18T02:37:36.261Z,93.38
2023-01-18T02:38:36.258Z,92.76
2023-01-18T02:39:36.243Z,91.08
2023-01-18T02:40:36.243Z,90.34
2023-01-18T02:41:36.230Z,89.34
2023-01-18T02:42:36.243Z,88.81
2023-01-18T02:43:36.211Z,88.39
2023-01-18T02:44:36.203Z,87.87
2023-01-18T02:45:36.201Z,87.91
2023-01-18T02:46:36.195Z,88.54
2023-01-18T02:47:36.181Z,88.54
2023-01-18T02:48:36.171Z,89.10
2023-01-18T02:49:36.165Z,89.73
2023-01-18T02:50:36.157Z,89.73
2023-01-18T02:51:36.147Z,89.84
2023-01-18T02:52:36.169Z,90.25
2023-01-18T02:53:36.140Z,90.78
2023-01-18T02:54:36.120Z,90.99
2023-01-18T02:55:36.112Z,90.99
2023-01-18T02:56:36.106Z,91.30
2023-01-18T02:57:36.094Z,91.52
2023-01-18T02:58:36.109Z,91.09
2023-01-18T02:59:36.078Z,91.62
2023-01-18T03:00:36.075Z,91.83
2023-01-18T03:01:36.121Z,92.04
2023-01-18T03:02:36.103Z,92.25
2023-01-18T03:03:36.059Z,91.83
2023-01-18T03:04:36.052Z,91.62
2023-01-18T03:05:36.031Z,91.30
2023-01-18T03:06:36.027Z,91.20
2023-01-18T03:07:36.019Z,91.62
2023-01-18T03:08:36.006Z,91.94
2023-01-18T03:09:36.001Z,92.04
2023-01-18T03:10:35.993Z,92.35
2023-01-18T03:11:35.982Z,91.94
2023-01-18T03:12:35.969Z,92.88
2023-01-18T03:13:35.967Z,92.46
2023-01-18T03:14:35.974Z,93.05
2023-01-18T03:15:35.975Z,92.83
2023-01-18T03:16:35.941Z,93.11
2023-01-18T03:17:35.938Z,92.73
2023-01-18T03:18:35.921Z,93.15
2023-01-18T03:19:35.914Z,92.90
2023-01-18T03:20:35.907Z,92.90
2023-01-18T03:21:35.898Z,93.01
2023-01-18T03:22:35.892Z,93.43
2023-01-18T03:23:35.882Z,92.69
2023-01-18T03:24:35.874Z,92.80
2023-01-18T03:25:35.874Z,91.53
2023-01-18T03:26:35.865Z,90.80
2023-01-18T03:27:35.867Z,90.28
2023-01-18T03:28:35.839Z,90.00
2023-01-18T03:29:35.834Z,90.11
2023-01-18T03:30:35.845Z,90.00
2023-01-18T03:31:35.822Z,90.32
2023-01-18T03:32:35.807Z,90.42
2023-01-18T03:33:35.806Z,90.42
2023-01-18T03:34:35.792Z,90.78
2023-01-18T03:35:35.787Z,90.64
2023-01-18T03:36:35.772Z,90.15
2023-01-18T03:37:35.767Z,90.15
2023-01-18T03:38:35.755Z,90.47
2023-01-18T03:39:35.747Z,90.15
2023-01-18T03:40:35.751Z,89.84
2023-01-18T03:41:35.745Z,89.31
2023-01-18T03:42:35.740Z,89.77
2023-01-18T03:43:35.731Z,89.56
2023-01-18T03:44:35.712Z,89.62
2023-01-18T03:45:35.699Z,89.56
2023-01-18T03:46:35.775Z,89.56
2023-01-18T03:47:35.692Z,90.19
2023-01-18T03:48:35.678Z,90.51
2023-01-18T03:49:35.673Z,90.82
2023-01-18T03:50:35.667Z,90.61
2023-01-18T03:51:35.655Z,90.82
2023-01-18T03:52:35.648Z,90.61
2023-01-18T03:53:35.636Z,90.61
2023-01-18T03:54:35.627Z,90.82
2023-01-18T03:55:35.619Z,90.44
2023-01-18T03:56:35.608Z,90.40
2023-01-18T03:57:35.602Z,90.66
2023-01-18T03:58:35.591Z,90.76
2023-01-18T03:59:35.587Z,90.86
2023-01-18T04:00:35.576Z,90.76
2023-01-18T04:01:35.580Z,91.81
2023-01-18T04:02:35.623Z,90.97
2023-01-18T04:03:35.551Z,91.91
2023-01-18T04:04:35.540Z,91.91
2023-01-18T04:05:35.546Z,91.81
2023-01-18T04:06:35.523Z,92.02
2023-01-18T04:07:35.519Z,92.33
2023-01-18T04:08:35.508Z,92.23
2023-01-18T04:09:35.510Z,92.02
2023-01-18T04:10:35.492Z,93.28
2023-01-18T04:11:35.495Z,92.54
2023-01-18T04:12:35.483Z,93.18
2023-01-18T04:13:35.473Z,92.96
2023-01-18T04:14:35.457Z,93.44
2023-01-18T04:15:35.456Z,93.97
2023-01-18T04:16:35.439Z,94.14
2023-01-18T04:17:35.444Z,94.56
2023-01-18T04:18:35.454Z,93.93
2023-01-18T04:19:35.416Z,94.10
2023-01-18T04:20:35.407Z,93.88
2023-01-18T04:21:35.398Z,93.05
2023-01-18T04:22:35.394Z,92.52
2023-01-18T04:23:35.382Z,90.95
2023-01-18T04:24:35.374Z,91.52
2023-01-18T04:25:35.366Z,91.62
2023-01-18T04:26:35.366Z,91.30
2023-01-18T04:27:35.351Z,90.78
2023-01-18T04:28:35.342Z,90.57
2023-01-18T04:29:35.333Z,90.47
2023-01-18T04:30:35.327Z,90.89
2023-01-18T04:31:35.375Z,90.99
2023-01-18T04:32:35.306Z,91.52
2023-01-18T04:33:35.553Z,90.99
2023-01-18T04:34:35.312Z,91.68
2023-01-18T04:35:35.282Z,91.89
2023-01-18T04:36:35.271Z,92.32
2023-01-18T04:37:35.266Z,92.32
2023-01-18T04:38:35.258Z,91.89
2023-01-18T04:39:35.249Z,92.27
2023-01-18T04:40:35.237Z,92.48
2023-01-18T04:41:35.232Z,91.16
2023-01-18T04:42:35.230Z,90.84
2023-01-18T04:43:35.217Z,90.22
2023-01-18T04:44:35.203Z,89.69
2023-01-18T04:45:35.208Z,89.69
2023-01-18T04:46:35.235Z,89.90
2023-01-18T04:47:35.191Z,89.94
2023-01-18T04:48:35.187Z,90.32
2023-01-18T04:49:35.165Z,90.67
2023-01-18T04:50:35.175Z,90.47
2023-01-18T04:51:35.159Z,90.67
2023-01-18T04:52:35.138Z,90.25
2023-01-18T04:53:35.144Z,90.67
2023-01-18T04:54:35.130Z,90.67
2023-01-18T04:55:35.115Z,90.89
2023-01-18T04:56:35.107Z,91.41
2023-01-18T04:57:35.098Z,90.78
2023-01-18T04:58:35.086Z,90.78
2023-01-18T04:59:35.081Z,91.72
2023-01-18T05:00:35.164Z,90.89
2023-01-18T05:01:35.136Z,90.99
2023-01-18T05:02:35.137Z,91.62
2023-01-18T05:03:35.049Z,91.41
2023-01-18T05:04:35.035Z,90.19
2023-01-18T05:05:35.036Z,89.87
2023-01-18T05:06:35.045Z,89.77
2023-01-18T05:07:35.014Z,89.18
2023-01-18T05:08:35.021Z,88.55
2023-01-18T05:09:35.000Z,88.49
2023-01-18T05:10:34.990Z,88.66
2023-01-18T05:11:35.010Z,88.59
2023-01-18T05:12:34.974Z,87.85
2023-01-18T05:13:34.963Z,87.75
2023-01-18T05:14:34.963Z,88.17
2023-01-18T05:15:35.035Z,88.70
2023-01-18T05:16:34.974Z,89.22
2023-01-18T05:17:34.936Z,88.74
2023-01-18T05:18:34.923Z,89.58
2023-01-18T05:19:34.915Z,90.14
2023-01-18T05:20:34.907Z,90.42
2023-01-18T05:21:34.897Z,91.05
2023-01-18T05:22:34.921Z,91.16
2023-01-18T05:23:34.884Z,91.43
2023-01-18T05:24:34.867Z,91.64
2023-01-18T05:25:34.866Z,92.38
2023-01-18T05:26:34.852Z,92.38
2023-01-18T05:27:34.865Z,93.07
2023-01-18T05:28:34.838Z,92.86
2023-01-18T05:29:34.827Z,92.61
2023-01-18T05:30:34.825Z,92.61
2023-01-18T05:31:34.828Z,93.13
2023-01-18T05:32:34.804Z,92.99
2023-01-18T05:33:34.797Z,92.77
2023-01-18T05:34:34.800Z,91.72
2023-01-18T05:35:34.781Z,91.30
2023-01-18T05:36:34.766Z,91.09
2023-01-18T05:37:34.759Z,91.62
2023-01-18T05:38:34.777Z,91.62
2023-01-18T05:39:34.747Z,91.20
2023-01-18T05:40:34.742Z,91.03
2023-01-18T05:41:34.742Z,91.03
2023-01-18T05:42:34.727Z,90.72
2023-01-18T05:43:35.798Z,91.56
2023-01-18T05:44:34.704Z,91.30
2023-01-18T05:45:34.726Z,91.24
2023-01-18T05:46:34.695Z,91.03
2023-01-18T05:47:34.680Z,90.12
2023-01-18T05:48:34.674Z,90.34
2023-01-18T05:49:34.664Z,90.23
2023-01-18T05:50:34.654Z,90.23
2023-01-18T05:51:34.643Z,90.86
2023-01-18T05:52:34.635Z,91.14
2023-01-18T05:53:34.630Z,92.19
2023-01-18T05:54:34.645Z,92.19
2023-01-18T05:55:34.610Z,92.88
2023-01-18T05:56:34.606Z,92.71
2023-01-18T05:57:34.599Z,92.25
2023-01-18T05:58:34.593Z,92.25
2023-01-18T05:59:34.577Z,91.83
2023-01-18T06:00:34.567Z,90.72
2023-01-18T06:01:34.637Z,89.87
2023-01-18T06:02:34.584Z,89.46
2023-01-18T06:03:34.544Z,89.14
2023-01-18T06:04:34.611Z,89.04
2023-01-18T06:05:34.537Z,89.67
2023-01-18T06:06:34.835Z,89.18
2023-01-18T06:07:34.512Z,88.66
2023-01-18T06:08:34.500Z,89.07
2023-01-18T06:09:34.489Z,89.50
2023-01-18T06:10:34.501Z,89.81
2023-01-18T06:11:34.476Z,89.81
2023-01-18T06:12:34.464Z,89.71
2023-01-18T06:13:34.461Z,89.64
2023-01-18T06:14:34.456Z,90.12
2023-01-18T06:15:34.439Z,90.23
2023-01-18T06:16:34.437Z,90.34
2023-01-18T06:17:34.421Z,91.07
2023-01-18T06:18:34.414Z,90.97
2023-01-18T06:19:34.403Z,90.76
2023-01-18T06:20:34.396Z,90.86
2023-01-18T06:21:34.390Z,91.71
2023-01-18T06:22:34.380Z,91.18
2023-01-18T06:23:34.377Z,92.08
2023-01-18T06:24:34.360Z,92.29
2023-01-18T06:25:34.355Z,91.14
2023-01-18T06:26:34.362Z,90.76
2023-01-18T06:27:34.338Z,91.18
2023-01-18T06:28:34.329Z,90.76
2023-01-18T06:29:34.318Z,89.92
2023-01-18T06:30:34.330Z,89.29
2023-01-18T06:31:34.314Z,89.86
2023-01-18T06:32:34.305Z,89.81
2023-01-18T06:33:34.287Z,90.12
2023-01-18T06:34:34.273Z,89.92
2023-01-18T06:35:34.296Z,89.39
2023-01-18T06:36:34.265Z,89.92
2023-01-18T06:37:34.251Z,89.60
2023-01-18T06:38:34.740Z,89.81
2023-01-18T06:39:34.234Z,89.96
2023-01-18T06:40:34.225Z,89.96
2023-01-18T06:41:34.221Z,89.75
2023-01-18T06:42:34.253Z,89.96
2023-01-18T06:43:34.199Z,90.59
2023-01-18T06:44:34.187Z,90.59
2023-01-18T06:45:34.284Z,90.59
2023-01-18T06:46:34.174Z,90.59
2023-01-18T06:47:34.169Z,90.38
2023-01-18T06:48:34.165Z,91.11
2023-01-18T06:49:34.149Z,90.69
2023-01-18T06:50:34.144Z,90.80
2023-01-18T06:51:34.143Z,91.22
2023-01-18T06:52:34.123Z,91.74
2023-01-18T06:53:36.762Z,91.96
2023-01-18T06:54:34.110Z,90.86
2023-01-18T06:55:34.097Z,90.38
2023-01-18T06:56:34.089Z,90.17
2023-01-18T06:57:34.080Z,90.17
2023-01-18T06:58:34.109Z,90.27
2023-01-18T06:59:34.072Z,90.17
2023-01-18T07:00:34.064Z,90.69
2023-01-18T07:01:34.133Z,89.64
2023-01-18T07:02:34.141Z,90.17
2023-01-18T07:03:34.054Z,90.17
2023-01-18T07:04:35.696Z,89.64
2023-01-18T07:05:34.016Z,89.69
2023-01-18T07:06:34.002Z,89.79
2023-01-18T07:07:33.991Z,90.00
2023-01-18T07:08:33.988Z,90.21
2023-01-18T07:09:33.979Z,90.56
2023-01-18T07:10:33.965Z,91.05
2023-01-18T07:11:33.961Z,90.84
2023-01-18T07:12:33.949Z,92.06
2023-01-18T07:13:33.939Z,91.43
2023-01-18T07:14:33.949Z,91.74
2023-01-18T07:15:33.924Z,90.38
2023-01-18T07:16:33.996Z,90.59
2023-01-18T07:17:33.912Z,91.01
2023-01-18T07:18:33.895Z,91.60
2023-01-18T07:19:33.887Z,91.33
2023-01-18T07:20:33.880Z,91.22
2023-01-18T07:21:33.875Z,90.69
2023-01-18T07:22:33.885Z,90.38
2023-01-18T07:23:33.859Z,89.96
2023-01-18T07:24:33.850Z,90.17
2023-01-18T07:25:33.838Z,90.17
2023-01-18T07:26:33.826Z,90.59
2023-01-18T07:27:33.825Z,90.91
2023-01-18T07:28:33.833Z,90.84
2023-01-18T07:29:33.804Z,90.84
2023-01-18T07:30:33.823Z,91.11
2023-01-18T07:31:33.799Z,91.68
2023-01-18T07:32:33.780Z,91.68
2023-01-18T07:33:33.769Z,92.38
2023-01-18T07:34:33.770Z,92.48
2023-01-18T07:35:33.766Z,91.89
2023-01-18T07:36:33.740Z,91.64
2023-01-18T07:37:33.732Z,91.58
2023-01-18T07:38:33.733Z,91.68
2023-01-18T07:39:33.714Z,91.78
2023-01-18T07:40:33.714Z,90.84
2023-01-18T07:41:33.698Z,90.73
2023-01-18T07:42:33.710Z,90.94
2023-01-18T07:43:34.033Z,90.94
2023-01-18T07:44:33.676Z,91.78
2023-01-18T07:45:33.662Z,91.05
2023-01-18T07:46:33.785Z,91.89
2023-01-18T07:47:33.657Z,91.74
2023-01-18T07:48:33.643Z,92.06
2023-01-18T07:49:33.628Z,91.64
2023-01-18T07:50:33.658Z,91.53
2023-01-18T07:51:33.628Z,91.33
2023-01-18T07:52:33.603Z,91.01
2023-01-18T07:53:33.603Z,91.53
2023-01-18T07:54:33.585Z,91.07
2023-01-18T07:55:33.574Z,91.81
2023-01-18T07:56:33.566Z,90.80
2023-01-18T07:57:33.557Z,90.48
2023-01-18T07:58:33.554Z,90.38
2023-01-18T07:59:33.643Z,90.38
2023-01-18T08:00:33.532Z,90.27
2023-01-18T08:01:33.659Z,90.69
2023-01-18T08:02:33.639Z,90.91
2023-01-18T08:03:33.510Z,91.81
2023-01-18T08:04:33.499Z,90.80
2023-01-18T08:05:33.494Z,90.80
2023-01-18T08:06:33.484Z,90.91
2023-01-18T08:07:33.517Z,91.33
2023-01-18T08:08:33.465Z,91.64
2023-01-18T08:09:33.459Z,91.43
2023-01-18T08:10:33.446Z,91.74
2023-01-18T08:11:33.435Z,91.64
2023-01-18T08:12:33.431Z,91.28
2023-01-18T08:13:33.415Z,91.18
2023-01-18T08:14:33.416Z,91.81
2023-01-18T08:15:33.444Z,91.43
2023-01-18T08:16:33.386Z,90.86
2023-01-18T08:17:33.375Z,91.07
2023-01-18T08:18:33.388Z,90.97
2023-01-18T08:19:33.353Z,90.76
2023-01-18T08:20:33.346Z,90.76
2023-01-18T08:21:33.351Z,90.76
2023-01-18T08:22:33.422Z,91.18
2023-01-18T08:23:33.315Z,90.76
2023-01-18T08:24:33.306Z,90.86
2023-01-18T08:25:33.297Z,91.18
2023-01-18T08:26:33.290Z,90.86
2023-01-18T08:27:33.284Z,91.49
2023-01-18T08:28:33.266Z,91.18
2023-01-18T08:29:33.263Z,91.60
2023-01-18T08:30:33.247Z,91.81
2023-01-18T08:31:33.336Z,92.40
2023-01-18T08:32:33.224Z,91.94
2023-01-18T08:33:33.214Z,93.09
2023-01-18T08:34:33.226Z,92.71
2023-01-18T08:35:33.199Z,92.77
2023-01-18T08:36:33.185Z,92.25
2023-01-18T08:37:33.176Z,92.77
2023-01-18T08:38:33.168Z,93.09
2023-01-18T08:39:33.153Z,93.51
2023-01-18T08:40:33.141Z,93.62
2023-01-18T08:41:33.132Z,93.15
2023-01-18T08:42:33.121Z,93.47
2023-01-18T08:43:33.466Z,93.26
2023-01-18T08:44:33.101Z,93.88
2023-01-18T08:45:33.096Z,94.31
2023-01-18T08:46:33.133Z,94.10
2023-01-18T08:47:33.080Z,94.41
2023-01-18T08:48:33.059Z,93.95
2023-01-18T08:49:33.050Z,93.99
2023-01-18T08:50:33.107Z,94.41
2023-01-18T08:51:33.037Z,94.37
2023-01-18T08:52:33.019Z,94.37
2023-01-18T08:53:33.008Z,94.37
2023-01-18T08:54:33.002Z,94.16
2023-01-18T08:55:32.986Z,93.74
2023-01-18T08:56:32.987Z,93.84
2023-01-18T08:57:32.971Z,94.06
2023-01-18T08:58:32.958Z,94.06
2023-01-18T08:59:33.008Z,93.43
2023-01-18T09:00:32.944Z,93.53
2023-01-18T09:01:33.070Z,93.32
2023-01-18T09:02:32.970Z,93.53
2023-01-18T09:03:32.905Z,93.43
2023-01-18T09:04:32.899Z,93.32
2023-01-18T09:05:32.885Z,93.43
2023-01-18T09:06:32.910Z,93.21
2023-01-18T09:07:32.865Z,93.43
2023-01-18T09:08:32.867Z,94.16
2023-01-18T09:09:32.841Z,94.16
2023-01-18T09:10:32.838Z,93.84
2023-01-18T09:11:32.829Z,94.68
2023-01-18T09:12:32.818Z,94.22
2023-01-18T09:13:32.801Z,93.80
2023-01-18T09:14:32.796Z,94.12
2023-01-18T09:15:32.782Z,94.54
2023-01-18T09:16:32.866Z,94.60
2023-01-18T09:17:32.762Z,94.49
2023-01-18T09:18:32.764Z,94.49
2023-01-18T09:19:32.745Z,94.60
2023-01-18T09:20:32.732Z,94.07
2023-01-18T09:21:32.722Z,93.97
2023-01-18T09:22:32.841Z,93.87
2023-01-18T09:23:32.704Z,93.65
2023-01-18T09:24:32.692Z,94.43
2023-01-18T09:25:32.676Z,93.87
2023-01-18T09:26:32.676Z,93.91
2023-01-18T09:27:32.659Z,94.32
2023-01-18T09:28:32.680Z,94.22
2023-01-18T09:29:32.637Z,93.80
2023-01-18T09:30:32.625Z,94.12
2023-01-18T09:31:32.690Z,94.64
2023-01-18T09:32:32.619Z,94.70
2023-01-18T09:33:37.938Z,94.64
2023-01-18T09:34:32.588Z,94.74
2023-01-18T09:35:32.574Z,95.06
2023-01-18T09:36:32.575Z,95.68
2023-01-18T09:37:32.561Z,95.90
2023-01-18T09:38:32.563Z,96.11
2023-01-18T09:39:40.264Z,96.06
2023-01-18T09:40:32.521Z,96.06
2023-01-18T09:41:32.521Z,96.00
2023-01-18T09:42:32.502Z,96.42
2023-01-18T09:43:32.495Z,96.63
2023-01-18T09:44:32.502Z,96.69
2023-01-18T09:45:32.491Z,96.59
2023-01-18T09:46:32.579Z,96.80
2023-01-18T09:47:32.462Z,97.42
2023-01-18T09:48:32.806Z,97.42
2023-01-18T09:49:32.433Z,97.63
2023-01-18T09:50:32.431Z,97.53
2023-01-18T09:51:32.415Z,97.16
2023-01-18T09:52:32.421Z,97.22
2023-01-18T09:53:32.392Z,97.63
2023-01-18T09:54:32.504Z,97.74
2023-01-18T09:56:32.370Z,98.16
2023-01-18T09:57:32.347Z,98.05
2023-01-18T09:58:32.346Z,98.05
2023-01-18T09:59:32.327Z,98.47
2023-01-18T10:00:32.360Z,98.05
2023-01-18T10:01:32.481Z,97.85
2023-01-18T10:02:32.377Z,98.47
2023-01-18T10:03:32.287Z,98.37
2023-01-18T10:04:32.281Z,98.47
2023-01-18T10:05:32.268Z,98.47
2023-01-18T10:06:32.264Z,98.58
2023-01-18T10:07:32.248Z,98.58
2023-01-18T10:08:32.236Z,98.16
2023-01-18T10:09:32.231Z,98.37
2023-01-18T10:10:32.236Z,98.47
2023-01-18T10:11:32.206Z,98.58
2023-01-18T10:12:32.206Z,98.64
2023-01-18T10:13:32.196Z,98.43
2023-01-18T10:14:32.174Z,98.89
2023-01-18T10:15:32.164Z,98.74
2023-01-18T10:16:32.200Z,99.05
2023-01-18T10:17:32.145Z,98.85
2023-01-18T10:18:32.133Z,98.74
2023-01-18T10:19:32.128Z,98.85
2023-01-18T10:20:32.113Z,98.85
2023-01-18T10:21:32.103Z,98.95
2023-01-18T10:22:32.092Z,99.16
2023-01-18T10:23:32.082Z,98.95
2023-01-18T10:24:32.072Z,99.05
2023-01-18T10:25:32.063Z,98.74
2023-01-18T10:26:32.076Z,98.32
2023-01-18T10:27:32.040Z,98.22
2023-01-18T10:28:32.033Z,98.74
2023-01-18T10:29:33.657Z,98.74
2023-01-18T10:30:32.016Z,98.80
2023-01-18T10:31:32.048Z,98.38
2023-01-18T10:32:31.992Z,98.28
2023-01-18T10:34:34.624Z,98.80
2023-01-18T10:35:34.614Z,98.80
2023-01-18T10:36:34.607Z,98.80
2023-01-18T10:37:34.596Z,99.22
2023-01-18T10:38:34.584Z,99.11
2023-01-18T10:39:34.580Z,99.01
2023-01-18T10:40:34.564Z,98.38
2023-01-18T10:41:34.579Z,98.91
2023-01-18T10:42:34.542Z,99.11
2023-01-18T10:43:34.559Z,98.91
2023-01-18T10:44:34.522Z,98.91
2023-01-18T10:45:34.575Z,99.32
2023-01-18T10:46:34.506Z,98.91
2023-01-18T10:47:34.496Z,99.01
2023-01-18T10:48:34.486Z,98.91
2023-01-18T10:49:34.483Z,98.80
2023-01-18T10:50:34.466Z,99.22
2023-01-18T10:51:34.450Z,99.22
2023-01-18T10:53:34.632Z,99.18
2023-01-18T10:54:34.446Z,99.38
2023-01-18T10:55:34.419Z,99.38
2023-01-18T10:56:34.399Z,99.28
2023-01-18T10:57:34.435Z,99.28
2023-01-18T10:58:34.381Z,99.38
2023-01-18T10:59:34.372Z,99.38
2023-01-18T11:00:34.361Z,99.18
2023-01-18T11:01:34.476Z,99.18
2023-01-18T11:02:34.342Z,99.86
2023-01-18T11:03:34.332Z,99.18
2023-01-18T11:04:34.322Z,99.99
2023-01-18T11:05:34.315Z,99.80
2023-01-18T11:06:34.297Z,99.65
2023-01-18T11:07:34.291Z,99.55
2023-01-18T11:08:34.287Z,99.80
2023-01-18T11:09:34.269Z,99.44
2023-01-18T11:10:34.262Z,99.96
2023-01-18T11:11:34.252Z,99.86
2023-01-18T11:12:34.256Z,99.65
2023-01-18T11:13:34.256Z,99.65
2023-01-18T11:14:34.231Z,99.55
2023-01-18T11:15:34.238Z,99.44
2023-01-18T11:16:34.273Z,99.55
2023-01-18T11:17:34.189Z,99.76
2023-01-18T11:18:34.177Z,99.76
2023-01-18T11:19:34.171Z,99.99
2023-01-18T11:20:34.177Z,99.65
2023-01-18T11:21:34.158Z,99.82
2023-01-18T11:22:34.141Z,99.96
2023-01-18T11:23:34.136Z,99.82
2023-01-18T11:24:34.133Z,99.71
2023-01-18T11:25:34.113Z,99.61
2023-01-18T11:26:34.105Z,99.82
2023-01-18T11:27:34.091Z,99.82
2023-01-18T11:28:34.079Z,99.82
2023-01-18T11:29:34.112Z,99.82
2023-01-18T11:30:34.065Z,99.82
2023-01-18T11:31:34.093Z,99.82
2023-01-18T11:32:34.038Z,99.61
2023-01-18T11:33:34.032Z,99.82
2023-01-18T11:34:34.026Z,99.71
2023-01-18T11:35:34.014Z,99.71
2023-01-18T11:36:34.000Z,99.61
2023-01-18T11:37:33.991Z,99.66
2023-01-18T11:38:33.979Z,99.71
2023-01-18T11:39:33.974Z,99.56
2023-01-18T11:40:33.968Z,99.66
2023-01-18T11:41:33.951Z,99.66
2023-01-18T11:42:33.950Z,99.56
2023-01-18T11:43:33.932Z,99.66
2023-01-18T11:44:33.923Z,99.77
2023-01-18T11:45:33.990Z,99.66
2023-01-18T11:46:33.903Z,99.46
2023-01-18T11:47:33.894Z,99.46
2023-01-18T11:48:33.883Z,99.77
2023-01-18T11:49:33.871Z,99.46
2023-01-18T11:50:33.868Z,99.98
2023-01-18T11:51:33.859Z,99.15
2023-01-18T11:52:33.845Z,99.46
2023-01-18T11:53:33.832Z,99.25
2023-01-18T11:54:33.822Z,99.46
2023-01-18T11:55:33.814Z,99.15
2023-01-18T11:56:33.801Z,99.04
2023-01-18T11:57:33.799Z,99.25
2023-01-18T11:58:33.933Z,99.15
2023-01-18T11:59:33.779Z,99.25
2023-01-18T12:00:33.765Z,99.25
2023-01-18T12:02:33.814Z,99.04
2023-01-18T12:04:33.738Z,98.83
2023-01-18T12:05:33.722Z,98.68
2023-01-18T12:06:33.713Z,98.68
2023-01-18T12:07:33.696Z,98.89
2023-01-18T12:08:33.686Z,98.58
2023-01-18T12:09:33.679Z,98.83
2023-01-18T12:10:33.666Z,98.68
2023-01-18T12:11:33.658Z,98.79
2023-01-18T12:12:33.648Z,98.89
2023-01-18T12:13:33.632Z,98.89
2023-01-18T12:14:33.627Z,98.79
2023-01-18T12:15:33.617Z,98.16
2023-01-18T12:16:33.673Z,98.05
2023-01-18T12:17:33.647Z,98.58
2023-01-18T12:18:33.591Z,98.47
2023-01-18T12:19:33.575Z,98.58
2023-01-18T12:20:33.574Z,98.16
2023-01-18T12:21:33.555Z,98.58
2023-01-18T12:22:33.550Z,98.37
2023-01-18T12:23:33.544Z,98.26
2023-01-18T12:24:33.530Z,98.05
2023-01-18T12:25:33.519Z,97.74
2023-01-18T12:26:33.508Z,97.85
2023-01-18T12:27:33.497Z,97.74
2023-01-18T12:28:33.497Z,97.95
2023-01-18T12:30:33.507Z,97.85
2023-01-18T12:31:33.487Z,97.85
2023-01-18T12:32:33.458Z,97.53
2023-01-18T12:33:43.131Z,97.59
2023-01-18T12:34:33.430Z,97.70
2023-01-18T12:35:33.422Z,97.70
2023-01-18T12:36:33.412Z,97.70
2023-01-18T12:37:33.401Z,98.01
2023-01-18T12:38:33.390Z,97.59
2023-01-18T12:39:33.379Z,97.59
2023-01-18T12:40:33.388Z,97.70
2023-01-18T12:41:33.374Z,97.59
2023-01-18T12:42:33.351Z,97.59
2023-01-18T12:43:33.345Z,97.80
2023-01-18T12:44:33.331Z,97.59
2023-01-18T12:45:33.328Z,98.22
2023-01-18T12:46:33.314Z,97.91
2023-01-18T12:47:33.304Z,97.59
2023-01-18T12:48:33.298Z,97.59
2023-01-18T12:49:33.402Z,97.65
2023-01-18T12:50:33.332Z,97.55
2023-01-18T12:51:33.264Z,97.34
2023-01-18T12:52:33.256Z,97.97
2023-01-18T12:53:33.246Z,97.97
2023-01-18T12:54:33.234Z,97.75
2023-01-18T12:55:33.222Z,97.97
2023-01-18T12:56:33.213Z,97.65
2023-01-18T12:57:33.204Z,97.75
2023-01-18T12:58:33.194Z,97.65